ジョモ・ケニヤッタ国際空港の過去48時間の天気

ジョモ・ケニヤッタ国際空港 (Nairobi/Jomo Kenyatta Airport)

現在時刻: 7/10 10:29 EAT (7/10 07:29 UTC) 以下の時間は現地時間です。

過去48時間のMETAR気象情報
時間 風向 風速(m/s) 視程 気温(℃) 湿度(%) 気圧(hPa) 天気現象
10 09:00 3 10km以上 16 82 1024
10 08:30 南南西 3 10km以上 16 82 1024
10 08:00 南南西 4 10km以上 15 88 1024
10 07:30 南南西 4 10km以上 14 94 1023
10 07:00 4 10km以上 14 94 1023
10 06:00 4 10km以上 14 94 1023
10 05:30 4 10km以上 15 94 1022
10 05:00 4 10km以上 16 94 1022
10 04:30 南南東 7 10km以上 16 94 1021
10 04:00 南南東 6 10km以上 16 94 1021 弱い雨
10 03:30 東南東 2 10km以上 16 94 1021
10 03:00 不定 1 10km以上 16 94 1021 弱い雨
10 02:30 西南西 2 10km以上 16 94 1021
10 02:00 西南西 2 10km以上 16 94 1022
10 01:30 西 2 10km以上 16 94 1022
10 01:00 西南西 2 10km以上 16 94 1022
10 00:30 西南西 2 10km以上 16 94 1022
10 00:00 西 3 10km以上 16 94 1023
9 23:00 南南西 3 10km以上 17 88 1022
9 22:30 不定 2 10km以上 17 88 1023
9 22:00 不定 1 10km以上 17 94 1023
9 21:30 北東 3 10km以上 17 88 1022
9 21:00 北東 2 10km以上 17 88 1022
9 20:30 北北東 2 10km以上 18 77 1022
9 20:00 3 10km以上 18 83 1021
9 19:30 4 10km以上 19 78 1021
9 19:00 東南東 5 10km以上 20 73 1021
9 18:30 6 10km以上 21 64 1020
9 18:00 5 10km以上 23 53 1020
9 17:30 南東 6 10km以上 23 53 1020
9 17:00 南東 5 10km以上 24 50 1020
9 16:30 東南東 5 10km以上 23 50 1020
9 16:00 東南東 5 10km以上 23 53 1020
9 15:30 東南東 3 10km以上 22 60 1021
9 15:00 4 10km以上 22 60 1021
9 14:30 3 10km以上 22 60 1021
9 14:00 東南東 3 10km以上 22 65 1022
9 13:30 3 10km以上 21 64 1022
9 13:00 3 10km以上 22 65 1023
9 12:30 3 10km以上 21 64 1023
9 12:00 東南東 5 10km以上 20 68 1023 弱いしゅう雨
9 11:30 不定 2 10km以上 21 64 1024
9 11:00 東南東 2 10km以上 20 68 1024
9 10:30 東南東 3 10km以上 20 68 1024
9 10:00 4 10km以上 20 64 1024
9 09:30 東南東 2 10km以上 21 64 1024
9 09:00 東北東 2 10km以上 19 73 1024
9 08:30 2 10km以上 18 77 1024
9 08:00 不定 1 10km以上 16 88 1024
9 07:30 南西 2 10km以上 14 94 1024
9 07:00 西北西 2 10km以上 13 94 1023
9 06:30 西 2 10km以上 12 94 1023
9 06:00 西南西 2 10km以上 12 94 1023
9 05:30 西 2 10km以上 13 88 1023
9 05:00 西 2 10km以上 14 88 1023
9 04:00 西南西 2 10km以上 16 82 1023
9 03:30 西南西 2 10km以上 16 82 1023
9 03:00 西南西 2 10km以上 16 82 1023
9 02:30 西南西 3 10km以上 16 82 1023
9 02:00 西南西 2 10km以上 16 82 1023
9 01:30 南南西 2 10km以上 16 82 1023
9 01:00 南南西 2 10km以上 16 82 1023
9 00:30 南西 2 10km以上 16 88 1023
9 00:00 西南西 3 10km以上 16 82 1023
8 23:30 南東 2 10km以上 18 73 1023
8 23:00 東南東 3 10km以上 18 68 1023
8 22:30 東南東 3 10km以上 19 68 1023
HKJK 100600Z 19005KT 9999 FEW020 SCT080 16/13 Q1024 NOSIG
HKJK 100530Z 21006KT 9999 FEW020 SCT070 16/13 Q1024 NOSIG
HKJK 100500Z 21007KT 9999 FEW020 SCT070 15/13 Q1024 NOSIG
HKJK 100430Z 20007KT 9999 SCT019 14/13 Q1023 NOSIG
HKJK 100400Z 18007KT 9999 SCT018 14/13 Q1023 NOSIG
HKJK 100300Z 18007KT 9999 BKN018 14/13 Q1023 NOSIG
HKJK 100230Z 18008KT 9999 SCT009 BKN018 15/14 Q1022 NOSIG
HKJK 100200Z 18008KT 9999 SCT009 BKN018 16/15 Q1022 NOSIG
HKJK 100130Z 16013KT 9999 SCT006 BKN016 BKN080 16/15 Q1021 NOSIG
HKJK 100100Z 15012KT 9999 -RA SCT004 BKN016 BKN080 16/15 Q1021 NOSIG
HKJK 100030Z 12003KT 9999 FEW008 SCT016 BKN080 16/15 Q1021 RERA NOSIG
HKJK 100000Z VRB02KT 9999 -RA FEW008 SCT016 BKN080 16/15 Q1021 NOSIG
HKJK 092330Z 25003KT 9999 BKN016 16/15 Q1021 NOSIG
HKJK 092300Z 25003KT 9999 BKN022 16/15 Q1022 NOSIG
HKJK 092230Z 26003KT 9999 BKN022 16/15 Q1022 NOSIG
HKJK 092200Z 25003KT 9999 BKN022 16/15 Q1022 NOSIG
HKJK 092130Z 25003KT 9999 BKN022 16/15 Q1022 NOSIG
HKJK 092100Z 27005KT 9999 BKN022 16/15 Q1023 NOSIG
HKJK 092000Z 21005KT 9999 SCT022 17/15 Q1022 NOSIG
HKJK 091930Z VRB03KT 9999 BKN020 17/15 Q1023 NOSIG
HKJK 091900Z VRB02KT 9999 BKN018 17/16 Q1023 NOSIG
HKJK 091830Z 05005KT 9999 SCT020 17/15 Q1022 NOSIG
HKJK 091800Z 05004KT CAVOK 17/15 Q1022 NOSIG
HKJK 091730Z 03003KT CAVOK 18/14 Q1022 NOSIG
HKJK 091700Z 08006KT CAVOK 18/15 Q1021 NOSIG
HKJK 091630Z 09007KT 9999 FEW035 19/15 Q1021 NOSIG
HKJK 091600Z 11010KT 9999 FEW036 20/15 Q1021 NOSIG
HKJK 091530Z 09011KT 9999 FEW036 21/14 Q1020 NOSIG
HKJK 091500Z 09010KT 9999 SCT036 23/13 Q1020 NOSIG
HKJK 091430Z 14011KT 9999 SCT036 23/13 Q1020 NOSIG
HKJK 091400Z 13010KT 9999 BKN036 24/13 Q1020 NOSIG
HKJK 091330Z 12010KT 9999 BKN034 23/12 Q1020 NOSIG
HKJK 091300Z 11010KT 9999 BKN034 23/13 Q1020 NOSIG
HKJK 091230Z 11006KT 9999 BKN032 22/14 Q1021 NOSIG
HKJK 091200Z 10008KT 9999 BKN032 22/14 Q1021 NOSIG
HKJK 091130Z 10005KT 9999 BKN030 22/14 Q1021 NOSIG
HKJK 091100Z 12005KT 9999 BKN028 22/15 Q1022 NOSIG
HKJK 091030Z 10005KT 9999 BKN027 21/14 Q1022 NOSIG
HKJK 091000Z 10006KT 9999 BKN027 22/15 Q1023 NOSIG
HKJK 090930Z 10006KT 9999 BKN027 21/14 Q1023 NOSIG
HKJK 090900Z 12010KT 9999 -SHRA BKN026 20/14 Q1023 NOSIG
HKJK 090830Z VRB04KT 9999 BKN026 21/14 Q1024 NOSIG
HKJK 090800Z 11004KT 9999 BKN026 20/14 Q1024 NOSIG
HKJK 090730Z 11006KT 9999 BKN025 20/14 Q1024 NOSIG
HKJK 090700Z 09007KT 9999 BKN024 20/13 Q1024 NOSIG
HKJK 090630Z 11004KT 9999 SCT022 21/14 Q1024 NOSIG
HKJK 090600Z 06004KT 9999 SCT020 19/14 Q1024 NOSIG
HKJK 090530Z 01004KT 9999 FEW017 18/14 Q1024 NOSIG
HKJK 090500Z VRB02KT 9999 FEW016 16/14 Q1024 NOSIG
HKJK 090430Z 23004KT 9999 FEW015 14/13 Q1024 NOSIG
HKJK 090400Z 30004KT 9999 FEW013 13/12 Q1023 NOSIG
HKJK 090330Z 26004KT 9999 FEW013 12/11 Q1023 NOSIG
HKJK 090300Z 25003KT 9999 FEW013 12/11 Q1023 NOSIG
HKJK 090230Z 27003KT 9999 FEW014 13/11 Q1023 NOSIG
HKJK 090200Z 28004KT 9999 FEW015 14/12 Q1023 NOSIG
HKJK 090100Z 24004KT 9999 BKN016 16/13 Q1023 NOSIG
HKJK 090030Z 24004KT 9999 BKN016 16/13 Q1023 NOSIG
HKJK 090000Z 24004KT 9999 BKN016 16/13 Q1023 NOSIG
HKJK 082330Z 24005KT 9999 BKN017 16/13 Q1023 NOSIG
HKJK 082300Z 24004KT 9999 BKN017 16/13 Q1023 NOSIG
HKJK 082230Z 21004KT 9999 BKN018 16/13 Q1023 NOSIG
HKJK 082200Z 21004KT 9999 BKN018 16/13 Q1023 NOSIG
HKJK 082130Z 22003KT 9999 BKN018 16/14 Q1023 NOSIG
HKJK 082100Z 25005KT 9999 BKN018 16/13 Q1023 NOSIG
HKJK 082030Z 13004KT 9999 FEW019 18/13 Q1023 NOSIG
HKJK 082000Z 12005KT 9999 FEW020 18/12 Q1023 NOSIG
HKJK 081930Z 12005KT 9999 FEW021 19/13 Q1023 NOSIG